sensor_id;sensor_type;location;lat;lon;timestamp;temperature;humidity
75517;DHT22;64097;52.548;13.406;2024-03-07T06:02:58;10.80;58.30
75517;DHT22;64097;52.548;13.406;2024-03-07T06:05:23;10.80;58.30
75517;DHT22;64097;52.548;13.406;2024-03-07T06:07:49;10.70;58.30
75517;DHT22;64097;52.548;13.406;2024-03-07T06:10:15;10.70;58.30
75517;DHT22;64097;52.548;13.406;2024-03-07T06:12:42;10.70;58.30
75517;DHT22;64097;52.548;13.406;2024-03-07T06:15:11;10.80;58.30
75517;DHT22;64097;52.548;13.406;2024-03-07T06:17:36;10.70;58.20
75517;DHT22;64097;52.548;13.406;2024-03-07T06:20:02;10.70;58.10
75517;DHT22;64097;52.548;13.406;2024-03-07T06:22:28;10.70;58.10
75517;DHT22;64097;52.548;13.406;2024-03-07T06:24:54;10.70;58.10
75517;DHT22;64097;52.548;13.406;2024-03-07T06:27:20;10.70;58.10
75517;DHT22;64097;52.548;13.406;2024-03-07T06:29:52;10.70;58.10
75517;DHT22;64097;52.548;13.406;2024-03-07T06:32:19;10.70;58.10
75517;DHT22;64097;52.548;13.406;2024-03-07T06:34:44;10.70;58.10
75517;DHT22;64097;52.548;13.406;2024-03-07T06:37:10;10.60;58.00
75517;DHT22;64097;52.548;13.406;2024-03-07T06:39:36;10.60;57.90
75517;DHT22;64097;52.548;13.406;2024-03-07T06:42:01;10.70;57.90
75517;DHT22;64097;52.548;13.406;2024-03-07T06:44:27;10.60;57.90
75517;DHT22;64097;52.548;13.406;2024-03-07T06:46:53;10.60;57.80
75517;DHT22;64097;52.548;13.406;2024-03-07T06:49:19;10.60;57.70
75517;DHT22;64097;52.548;13.406;2024-03-07T06:51:46;10.60;57.60
75517;DHT22;64097;52.548;13.406;2024-03-07T06:54:12;10.60;57.60
75517;DHT22;64097;52.548;13.406;2024-03-07T06:56:38;10.60;57.60
75517;DHT22;64097;52.548;13.406;2024-03-07T06:59:05;10.60;57.50
75517;DHT22;64097;52.548;13.406;2024-03-07T07:01:31;10.60;57.50
75517;DHT22;64097;52.548;13.406;2024-03-07T07:03:58;10.60;57.40
75517;DHT22;64097;52.548;13.406;2024-03-07T07:06:28;10.60;57.30
75517;DHT22;64097;52.548;13.406;2024-03-07T07:08:54;10.70;57.10
75517;DHT22;64097;52.548;13.406;2024-03-07T07:11:19;10.60;56.80
75517;DHT22;64097;52.548;13.406;2024-03-07T07:13:45;10.70;56.80
75517;DHT22;64097;52.548;13.406;2024-03-07T07:16:12;10.70;56.70
75517;DHT22;64097;52.548;13.406;2024-03-07T07:18:38;10.60;56.70
75517;DHT22;64097;52.548;13.406;2024-03-07T07:21:03;10.70;56.70
75517;DHT22;64097;52.548;13.406;2024-03-07T07:23:29;10.70;56.50
75517;DHT22;64097;52.548;13.406;2024-03-07T07:25:55;10.70;56.60
75517;DHT22;64097;52.548;13.406;2024-03-07T07:28:21;10.70;56.50
75517;DHT22;64097;52.548;13.406;2024-03-07T07:30:47;10.70;56.30
75517;DHT22;64097;52.548;13.406;2024-03-07T07:33:14;10.70;56.20
75517;DHT22;64097;52.548;13.406;2024-03-07T07:35:40;10.70;56.10
75517;DHT22;64097;52.548;13.406;2024-03-07T07:38:06;10.70;56.00
75517;DHT22;64097;52.548;13.406;2024-03-07T07:40:32;10.70;55.90
75517;DHT22;64097;52.548;13.406;2024-03-07T07:42:58;10.70;55.90
75517;DHT22;64097;52.548;13.406;2024-03-07T07:45:27;10.70;55.90
75517;DHT22;64097;52.548;13.406;2024-03-07T07:47:53;10.70;55.80
75517;DHT22;64097;52.548;13.406;2024-03-07T07:50:21;10.70;55.50
75517;DHT22;64097;52.548;13.406;2024-03-07T07:52:48;10.70;54.50
75517;DHT22;64097;52.548;13.406;2024-03-07T07:55:19;10.80;55.00
75517;DHT22;64097;52.548;13.406;2024-03-07T07:57:47;10.80;54.90
75517;DHT22;64097;52.548;13.406;2024-03-07T08:00:15;10.80;54.70
75517;DHT22;64097;52.548;13.406;2024-03-07T08:05:24;10.70;54.40
75517;DHT22;64097;52.548;13.406;2024-03-07T08:07:51;10.80;54.60
75517;DHT22;64097;52.548;13.406;2024-03-07T08:10:18;10.80;54.70
75517;DHT22;64097;52.548;13.406;2024-03-07T08:12:46;10.80;54.50
75517;DHT22;64097;52.548;13.406;2024-03-07T08:15:13;10.80;54.00
75517;DHT22;64097;52.548;13.406;2024-03-07T08:17:46;10.80;54.00
75517;DHT22;64097;52.548;13.406;2024-03-07T08:20:14;10.80;53.70
75517;DHT22;64097;52.548;13.406;2024-03-07T08:22:43;10.80;53.50
75517;DHT22;64097;52.548;13.406;2024-03-07T08:25:13;10.90;53.50
75517;DHT22;64097;52.548;13.406;2024-03-07T08:27:41;10.90;53.40
75517;DHT22;64097;52.548;13.406;2024-03-07T08:30:08;10.90;53.50
75517;DHT22;64097;52.548;13.406;2024-03-07T08:32:43;10.90;53.30
75517;DHT22;64097;52.548;13.406;2024-03-07T08:35:09;10.90;53.20
75517;DHT22;64097;52.548;13.406;2024-03-07T08:37:37;11.00;53.50
75517;DHT22;64097;52.548;13.406;2024-03-07T08:40:04;11.00;53.30
75517;DHT22;64097;52.548;13.406;2024-03-07T08:42:35;11.00;52.80
75517;DHT22;64097;52.548;13.406;2024-03-07T08:45:02;11.00;52.50
75517;DHT22;64097;52.548;13.406;2024-03-07T08:47:35;11.10;52.60
75517;DHT22;64097;52.548;13.406;2024-03-07T08:50:02;11.10;52.30
75517;DHT22;64097;52.548;13.406;2024-03-07T08:52:31;11.10;52.50
75517;DHT22;64097;52.548;13.406;2024-03-07T08:54:57;11.20;52.10
75517;DHT22;64097;52.548;13.406;2024-03-07T08:57:23;11.20;52.00
75517;DHT22;64097;52.548;13.406;2024-03-07T08:59:49;11.20;51.90
75517;DHT22;64097;52.548;13.406;2024-03-07T09:02:15;11.20;51.50
75517;DHT22;64097;52.548;13.406;2024-03-07T09:04:41;11.20;51.10
75517;DHT22;64097;52.548;13.406;2024-03-07T09:07:07;11.20;51.20
75517;DHT22;64097;52.548;13.406;2024-03-07T09:09:34;11.20;51.20
75517;DHT22;64097;52.548;13.406;2024-03-07T09:12:01;11.30;50.80
75517;DHT22;64097;52.548;13.406;2024-03-07T09:14:30;11.30;50.90
75517;DHT22;64097;52.548;13.406;2024-03-07T09:16:55;11.30;50.50
75517;DHT22;64097;52.548;13.406;2024-03-07T09:19:22;11.30;50.30
75517;DHT22;64097;52.548;13.406;2024-03-07T09:21:52;11.40;50.60
75517;DHT22;64097;52.548;13.406;2024-03-07T09:24:19;11.40;50.20
75517;DHT22;64097;52.548;13.406;2024-03-07T09:26:48;11.40;49.90
75517;DHT22;64097;52.548;13.406;2024-03-07T09:29:14;11.40;49.90
75517;DHT22;64097;52.548;13.406;2024-03-07T09:31:40;11.40;49.40
75517;DHT22;64097;52.548;13.406;2024-03-07T09:34:05;11.50;49.40
75517;DHT22;64097;52.548;13.406;2024-03-07T09:36:31;11.50;49.70
75517;DHT22;64097;52.548;13.406;2024-03-07T09:38:57;11.50;49.50
75517;DHT22;64097;52.548;13.406;2024-03-07T09:41:23;11.50;49.20
75517;DHT22;64097;52.548;13.406;2024-03-07T09:43:52;11.60;48.80
75517;DHT22;64097;52.548;13.406;2024-03-07T09:46:24;11.60;48.80
75517;DHT22;64097;52.548;13.406;2024-03-07T09:48:50;11.60;48.40
75517;DHT22;64097;52.548;13.406;2024-03-07T09:51:20;11.60;48.00
75517;DHT22;64097;52.548;13.406;2024-03-07T09:53:49;11.70;47.50
75517;DHT22;64097;52.548;13.406;2024-03-07T09:56:19;11.60;47.40
75517;DHT22;64097;52.548;13.406;2024-03-07T09:58:51;11.70;47.00
75517;DHT22;64097;52.548;13.406;2024-03-07T10:01:21;11.70;47.30
75517;DHT22;64097;52.548;13.406;2024-03-07T10:03:47;11.70;47.10
75517;DHT22;64097;52.548;13.406;2024-03-07T10:06:14;11.70;46.90
75517;DHT22;64097;52.548;13.406;2024-03-07T10:08:42;11.70;46.60
75517;DHT22;64097;52.548;13.406;2024-03-07T10:11:09;11.80;46.40
75517;DHT22;64097;52.548;13.406;2024-03-07T10:13:35;11.80;45.60
75517;DHT22;64097;52.548;13.406;2024-03-07T10:16:03;11.80;45.50
75517;DHT22;64097;52.548;13.406;2024-03-07T10:18:31;11.80;45.40
75517;DHT22;64097;52.548;13.406;2024-03-07T10:20:57;11.80;45.40
75517;DHT22;64097;52.548;13.406;2024-03-07T10:23:24;11.80;45.80
75517;DHT22;64097;52.548;13.406;2024-03-07T10:25:52;11.80;45.50
75517;DHT22;64097;52.548;13.406;2024-03-07T10:28:20;11.90;45.20
75517;DHT22;64097;52.548;13.406;2024-03-07T10:30:46;11.90;44.60
75517;DHT22;64097;52.548;13.406;2024-03-07T10:33:16;11.90;44.50
75517;DHT22;64097;52.548;13.406;2024-03-07T10:35:46;11.90;44.30
75517;DHT22;64097;52.548;13.406;2024-03-07T10:38:12;11.90;44.40
75517;DHT22;64097;52.548;13.406;2024-03-07T10:40:39;12.00;44.00
75517;DHT22;64097;52.548;13.406;2024-03-07T10:43:11;12.00;43.70
75517;DHT22;64097;52.548;13.406;2024-03-07T10:45:47;12.00;43.10
75517;DHT22;64097;52.548;13.406;2024-03-07T10:48:15;12.00;43.60
75517;DHT22;64097;52.548;13.406;2024-03-07T10:54:05;12.00;43.40
75517;DHT22;64097;52.548;13.406;2024-03-07T10:59:22;12.10;43.00
75517;DHT22;64097;52.548;13.406;2024-03-07T11:04:50;12.10;42.60
75517;DHT22;64097;52.548;13.406;2024-03-07T11:07:21;12.10;42.90
75517;DHT22;64097;52.548;13.406;2024-03-07T11:09:49;12.10;42.70
75517;DHT22;64097;52.548;13.406;2024-03-07T11:12:19;12.10;43.00
75517;DHT22;64097;52.548;13.406;2024-03-07T11:14:48;12.20;42.90
75517;DHT22;64097;52.548;13.406;2024-03-07T11:17:15;12.20;42.30
75517;DHT22;64097;52.548;13.406;2024-03-07T11:19:42;12.20;42.30
75517;DHT22;64097;52.548;13.406;2024-03-07T11:22:08;12.20;42.30
75517;DHT22;64097;52.548;13.406;2024-03-07T11:24:43;12.20;42.20
75517;DHT22;64097;52.548;13.406;2024-03-07T11:27:11;12.20;42.40
75517;DHT22;64097;52.548;13.406;2024-03-07T11:29:47;12.20;42.30
75517;DHT22;64097;52.548;13.406;2024-03-07T11:32:14;12.20;42.40
75517;DHT22;64097;52.548;13.406;2024-03-07T11:34:44;12.20;42.70
75517;DHT22;64097;52.548;13.406;2024-03-07T11:37:38;12.30;42.70
75517;DHT22;64097;52.548;13.406;2024-03-07T11:42:49;12.30;42.80
75517;DHT22;64097;52.548;13.406;2024-03-07T11:45:16;12.30;42.60
75517;DHT22;64097;52.548;13.406;2024-03-07T11:47:52;12.30;42.50
75517;DHT22;64097;52.548;13.406;2024-03-07T11:50:40;12.40;41.80
75517;DHT22;64097;52.548;13.406;2024-03-07T11:53:08;12.30;41.90
75517;DHT22;64097;52.548;13.406;2024-03-07T11:55:39;12.40;42.30
75517;DHT22;64097;52.548;13.406;2024-03-07T11:58:18;12.40;41.80
75517;DHT22;64097;52.548;13.406;2024-03-07T12:00:47;12.40;42.10
75517;DHT22;64097;52.548;13.406;2024-03-07T12:03:14;12.40;42.00
75517;DHT22;64097;52.548;13.406;2024-03-07T12:05:42;12.40;42.30
75517;DHT22;64097;52.548;13.406;2024-03-07T12:08:10;12.40;42.40
75517;DHT22;64097;52.548;13.406;2024-03-07T12:10:37;12.40;42.40
75517;DHT22;64097;52.548;13.406;2024-03-07T12:13:05;12.40;41.80
75517;DHT22;64097;52.548;13.406;2024-03-07T12:15:31;12.40;41.90
75517;DHT22;64097;52.548;13.406;2024-03-07T12:17:57;12.40;42.20
75517;DHT22;64097;52.548;13.406;2024-03-07T12:20:24;12.40;41.90
75517;DHT22;64097;52.548;13.406;2024-03-07T12:22:59;12.40;41.80
75517;DHT22;64097;52.548;13.406;2024-03-07T12:25:28;12.40;42.10
75517;DHT22;64097;52.548;13.406;2024-03-07T12:28:08;12.50;41.60
75517;DHT22;64097;52.548;13.406;2024-03-07T12:30:51;12.50;41.60
75517;DHT22;64097;52.548;13.406;2024-03-07T12:33:18;12.50;41.40
75517;DHT22;64097;52.548;13.406;2024-03-07T12:35:49;12.50;41.50
75517;DHT22;64097;52.548;13.406;2024-03-07T12:38:17;12.50;41.40
75517;DHT22;64097;52.548;13.406;2024-03-07T12:40:43;12.50;41.40
75517;DHT22;64097;52.548;13.406;2024-03-07T12:43:18;12.50;41.50
75517;DHT22;64097;52.548;13.406;2024-03-07T12:45:53;12.50;41.60
75517;DHT22;64097;52.548;13.406;2024-03-07T12:48:20;12.50;41.00
75517;DHT22;64097;52.548;13.406;2024-03-07T12:50:50;12.60;40.70
75517;DHT22;64097;52.548;13.406;2024-03-07T12:53:25;12.50;40.40
75517;DHT22;64097;52.548;13.406;2024-03-07T12:55:51;12.60;41.10
75517;DHT22;64097;52.548;13.406;2024-03-07T12:58:20;12.50;40.50
75517;DHT22;64097;52.548;13.406;2024-03-07T13:00:57;12.50;40.70
75517;DHT22;64097;52.548;13.406;2024-03-07T13:03:23;12.60;40.10
75517;DHT22;64097;52.548;13.406;2024-03-07T13:05:56;12.60;40.60
75517;DHT22;64097;52.548;13.406;2024-03-07T13:08:21;12.60;40.40
75517;DHT22;64097;52.548;13.406;2024-03-07T13:10:51;12.70;39.50
75517;DHT22;64097;52.548;13.406;2024-03-07T13:13:20;12.60;39.70
75517;DHT22;64097;52.548;13.406;2024-03-07T13:15:46;12.70;38.60
75517;DHT22;64097;52.548;13.406;2024-03-07T13:18:13;12.70;39.20
75517;DHT22;64097;52.548;13.406;2024-03-07T13:20:39;12.60;39.80
75517;DHT22;64097;52.548;13.406;2024-03-07T13:23:08;12.60;40.70
75517;DHT22;64097;52.548;13.406;2024-03-07T13:25:35;12.70;38.80
75517;DHT22;64097;52.548;13.406;2024-03-07T13:30:33;12.70;38.70
75517;DHT22;64097;52.548;13.406;2024-03-07T13:33:02;12.70;38.30
75517;DHT22;64097;52.548;13.406;2024-03-07T13:35:29;12.70;38.50
75517;DHT22;64097;52.548;13.406;2024-03-07T13:37:55;12.70;38.50
75517;DHT22;64097;52.548;13.406;2024-03-07T13:40:26;12.70;39.00
75517;DHT22;64097;52.548;13.406;2024-03-07T13:42:53;12.80;38.70
75517;DHT22;64097;52.548;13.406;2024-03-07T13:45:37;12.80;38.30
75517;DHT22;64097;52.548;13.406;2024-03-07T13:48:10;12.80;38.60
75517;DHT22;64097;52.548;13.406;2024-03-07T13:50:36;12.80;38.40
75517;DHT22;64097;52.548;13.406;2024-03-07T13:53:07;12.80;37.90
